createdAt,value
2019-01-27T00:01:12.817Z,2.27
2019-01-27T00:03:40.944Z,2.00
2019-01-27T00:06:09.219Z,3.12
2019-01-27T00:08:37.515Z,2.20
2019-01-27T00:11:05.822Z,2.98
2019-01-27T00:13:34.341Z,2.75
2019-01-27T00:16:02.572Z,1.60
2019-01-27T00:18:30.663Z,2.83
2019-01-27T00:20:58.868Z,3.27
2019-01-27T00:23:26.972Z,2.95
2019-01-27T00:25:55.460Z,2.30
2019-01-27T00:28:23.753Z,2.05
2019-01-27T00:30:51.932Z,2.00
2019-01-27T00:33:20.867Z,1.65
2019-01-27T00:35:49.229Z,1.60
2019-01-27T00:38:17.740Z,2.62
2019-01-27T00:40:45.767Z,2.00
2019-01-27T00:43:14.443Z,2.40
2019-01-27T00:45:42.620Z,2.17
2019-01-27T00:48:11.071Z,1.87
2019-01-27T00:50:39.252Z,3.30
2019-01-27T00:53:07.463Z,1.53
2019-01-27T00:55:35.782Z,2.15
2019-01-27T00:58:04.326Z,1.80
2019-01-27T01:00:32.720Z,1.57
2019-01-27T01:03:01.212Z,1.72
2019-01-27T01:05:29.631Z,1.30
2019-01-27T01:07:57.801Z,1.25
2019-01-27T01:10:25.759Z,1.47
2019-01-27T01:12:54.090Z,1.60
2019-01-27T01:15:22.782Z,1.60
2019-01-27T01:17:51.280Z,1.30
2019-01-27T01:20:19.584Z,1.92
2019-01-27T01:22:48.765Z,1.55
2019-01-27T01:25:21.643Z,1.62
2019-01-27T01:27:50.282Z,1.75
2019-01-27T01:30:20.942Z,1.85
2019-01-27T01:32:49.295Z,2.90
2019-01-27T01:35:17.971Z,1.40
2019-01-27T01:37:46.904Z,2.00
2019-01-27T01:40:15.957Z,2.05
2019-01-27T01:42:44.565Z,1.70
2019-01-27T01:45:18.135Z,1.40
2019-01-27T01:47:45.369Z,1.70
2019-01-27T01:50:14.122Z,2.02
2019-01-27T01:52:42.477Z,1.55
2019-01-27T01:55:12.245Z,1.95
2019-01-27T01:57:40.307Z,1.95
2019-01-27T02:00:11.622Z,2.00
2019-01-27T02:02:39.693Z,1.70
2019-01-27T02:05:08.694Z,2.00
2019-01-27T02:07:37.146Z,1.52
2019-01-27T02:10:05.653Z,1.40
2019-01-27T02:12:34.443Z,1.50
2019-01-27T02:15:03.142Z,1.40
2019-01-27T02:17:31.470Z,2.45
2019-01-27T02:19:59.685Z,1.37
2019-01-27T02:22:28.229Z,1.40
2019-01-27T02:24:57.313Z,1.15
2019-01-27T02:27:29.978Z,2.47
2019-01-27T02:29:58.178Z,1.37
2019-01-27T02:32:33.744Z,1.30
2019-01-27T02:35:01.722Z,1.32
2019-01-27T02:37:29.665Z,1.55
2019-01-27T02:39:57.594Z,1.60
2019-01-27T02:42:25.597Z,1.40
2019-01-27T02:44:53.476Z,1.80
2019-01-27T02:47:23.674Z,1.40
2019-01-27T02:49:51.573Z,1.25
2019-01-27T02:52:19.436Z,1.10
2019-01-27T02:54:47.998Z,1.00
2019-01-27T02:57:16.069Z,1.67
2019-01-27T02:59:43.952Z,1.40
2019-01-27T03:02:12.104Z,1.45
2019-01-27T03:04:40.049Z,1.12
2019-01-27T03:07:17.105Z,1.40
2019-01-27T03:09:45.725Z,0.80
2019-01-27T03:12:14.094Z,1.30
2019-01-27T03:14:42.076Z,1.30
2019-01-27T03:17:11.972Z,1.00
2019-01-27T03:19:39.927Z,1.10
2019-01-27T03:22:07.985Z,1.27
2019-01-27T03:24:35.900Z,1.47
2019-01-27T03:27:06.182Z,1.50
2019-01-27T03:29:34.122Z,1.35
2019-01-27T03:32:05.051Z,1.37
2019-01-27T03:34:33.056Z,1.87
2019-01-27T03:37:01.033Z,1.22
2019-01-27T03:39:28.993Z,1.40
2019-01-27T03:41:57.041Z,1.20
2019-01-27T03:44:24.905Z,1.00
2019-01-27T03:46:52.913Z,1.10
2019-01-27T03:49:21.013Z,1.40
2019-01-27T03:51:49.123Z,1.12
2019-01-27T03:54:17.393Z,1.50
2019-01-27T03:56:45.445Z,0.90
2019-01-27T03:59:17.013Z,1.10
2019-01-27T04:01:44.869Z,1.02
2019-01-27T04:04:12.962Z,1.05
2019-01-27T04:06:40.978Z,1.20
2019-01-27T04:09:10.748Z,1.10
2019-01-27T04:11:38.697Z,1.37
2019-01-27T04:14:06.797Z,1.20
2019-01-27T04:16:34.747Z,1.15
2019-01-27T04:19:02.811Z,1.40
2019-01-27T04:21:30.664Z,1.72
2019-01-27T04:23:58.792Z,0.95
2019-01-27T04:26:26.773Z,1.10
2019-01-27T04:28:54.890Z,1.95
2019-01-27T04:31:22.741Z,1.10
2019-01-27T04:33:50.606Z,1.45
2019-01-27T04:36:18.474Z,1.30
2019-01-27T04:38:46.356Z,0.90
2019-01-27T04:41:14.391Z,1.00
2019-01-27T04:43:42.342Z,1.30
2019-01-27T04:46:10.473Z,1.30
2019-01-27T04:48:38.457Z,1.50
2019-01-27T04:51:06.539Z,0.98
2019-01-27T04:53:34.613Z,0.90
2019-01-27T04:56:04.629Z,1.12
2019-01-27T04:58:33.329Z,1.10
2019-01-27T05:01:01.398Z,0.70
2019-01-27T05:03:43.839Z,0.72
2019-01-27T05:06:11.809Z,0.60
2019-01-27T05:08:39.781Z,0.50
2019-01-27T05:11:07.748Z,0.70
2019-01-27T05:13:35.849Z,0.70
2019-01-27T05:16:04.031Z,0.47
2019-01-27T05:18:32.114Z,0.60
2019-01-27T05:20:59.982Z,0.70
2019-01-27T05:23:27.991Z,0.70
2019-01-27T05:25:55.854Z,0.60
2019-01-27T05:28:23.813Z,0.50
2019-01-27T05:30:51.725Z,0.50
2019-01-27T05:33:19.621Z,0.40
2019-01-27T05:35:47.605Z,0.85
2019-01-27T05:38:16.363Z,0.50
2019-01-27T05:40:44.225Z,0.40
2019-01-27T05:43:12.572Z,0.90
2019-01-27T05:45:40.712Z,1.07
2019-01-27T05:48:09.053Z,0.53
2019-01-27T05:50:37.225Z,0.60
2019-01-27T05:53:06.098Z,0.55
2019-01-27T05:55:35.228Z,0.50
2019-01-27T05:58:04.008Z,0.50
2019-01-27T06:00:39.377Z,0.50
2019-01-27T06:03:07.459Z,0.40
2019-01-27T06:05:36.312Z,0.50
2019-01-27T06:08:04.874Z,0.42
2019-01-27T06:10:33.005Z,0.47
2019-01-27T06:13:01.441Z,0.37
2019-01-27T06:15:29.300Z,1.65
2019-01-27T06:17:57.367Z,0.45
2019-01-27T06:20:25.748Z,0.50
2019-01-27T06:22:53.982Z,0.40
2019-01-27T06:25:25.829Z,1.05
2019-01-27T06:27:52.878Z,0.30
2019-01-27T06:30:22.944Z,0.40
2019-01-27T06:33:02.717Z,0.40
2019-01-27T06:35:33.854Z,3.02
2019-01-27T06:38:02.014Z,0.50
2019-01-27T06:40:29.924Z,0.37
2019-01-27T06:42:58.817Z,0.50
2019-01-27T06:45:27.016Z,0.50
2019-01-27T06:47:55.804Z,0.40
2019-01-27T06:50:24.003Z,0.70
2019-01-27T06:52:53.410Z,0.53
2019-01-27T06:55:21.959Z,0.55
2019-01-27T06:57:50.733Z,0.62
2019-01-27T07:00:37.798Z,0.72
2019-01-27T07:03:19.072Z,0.55
2019-01-27T07:06:05.305Z,0.70
2019-01-27T07:08:39.229Z,0.88
2019-01-27T07:11:23.137Z,0.55
2019-01-27T07:14:10.352Z,0.53
2019-01-27T07:16:56.361Z,0.70
2019-01-27T07:19:40.120Z,0.93
2019-01-27T07:22:25.256Z,0.60
2019-01-27T07:25:18.537Z,0.80
2019-01-27T07:28:15.097Z,0.60
2019-01-27T07:31:01.954Z,0.80
2019-01-27T07:33:43.914Z,1.13
2019-01-27T07:36:29.941Z,0.85
2019-01-27T07:39:15.704Z,1.50
2019-01-27T07:42:03.934Z,0.88
2019-01-27T07:44:43.389Z,0.62
2019-01-27T07:47:37.422Z,0.60
2019-01-27T07:50:22.901Z,0.60
2019-01-27T07:53:09.344Z,0.42
2019-01-27T07:56:03.041Z,0.93
2019-01-27T07:58:52.976Z,0.75
2019-01-27T08:01:48.949Z,0.90
2019-01-27T08:04:24.836Z,1.55
2019-01-27T08:07:14.324Z,1.15
2019-01-27T08:09:59.736Z,0.60
2019-01-27T08:12:37.508Z,0.62
2019-01-27T08:15:37.529Z,0.53
2019-01-27T08:18:33.523Z,0.70
2019-01-27T08:21:32.179Z,0.82
2019-01-27T08:24:28.711Z,1.57
2019-01-27T08:27:08.763Z,0.90
2019-01-27T08:29:48.635Z,0.70
2019-01-27T08:32:39.285Z,0.75
2019-01-27T08:35:18.553Z,1.00
2019-01-27T08:38:04.945Z,1.35
2019-01-27T08:40:40.417Z,1.43
2019-01-27T08:43:18.541Z,1.10
2019-01-27T08:45:54.653Z,0.78
2019-01-27T08:48:21.616Z,1.07
2019-01-27T08:50:48.858Z,1.40
2019-01-27T08:53:16.032Z,1.80
2019-01-27T08:55:42.878Z,0.97
2019-01-27T08:58:09.737Z,2.00
2019-01-27T09:00:43.832Z,1.27
2019-01-27T09:03:15.704Z,2.97
2019-01-27T09:06:15.848Z,1.57
2019-01-27T09:09:04.968Z,2.37
2019-01-27T09:11:54.988Z,1.70
2019-01-27T09:14:41.782Z,2.13
2019-01-27T09:17:28.929Z,1.30
2019-01-27T09:20:20.584Z,1.90
2019-01-27T09:23:21.865Z,1.90
2019-01-27T09:25:58.418Z,2.40
2019-01-27T09:28:48.592Z,3.10
2019-01-27T09:31:21.404Z,1.40
2019-01-27T09:33:59.310Z,1.50
2019-01-27T09:36:46.102Z,2.73
2019-01-27T09:39:20.760Z,1.47
2019-01-27T09:42:09.009Z,6.83
2019-01-27T09:44:56.773Z,2.93
2019-01-27T09:47:36.661Z,4.33
2019-01-27T09:50:23.494Z,1.67
2019-01-27T09:52:57.185Z,2.00
2019-01-27T09:55:36.450Z,6.67
2019-01-27T09:58:33.238Z,3.10
2019-01-27T10:01:14.100Z,3.50
2019-01-27T10:03:50.454Z,1.70
2019-01-27T10:06:29.187Z,2.80
2019-01-27T10:09:06.564Z,1.30
2019-01-27T10:12:00.405Z,2.43
2019-01-27T10:14:51.441Z,1.80
2019-01-27T10:17:32.652Z,2.00
2019-01-27T10:20:21.052Z,2.60
2019-01-27T10:22:56.349Z,3.50
2019-01-27T10:25:46.570Z,1.90
2019-01-27T10:28:24.827Z,1.50
2019-01-27T10:31:05.179Z,1.43
2019-01-27T10:33:43.889Z,1.70
2019-01-27T10:36:29.148Z,1.83
2019-01-27T10:39:04.809Z,2.67
2019-01-27T10:41:43.327Z,1.30
2019-01-27T10:44:24.490Z,3.40
2019-01-27T10:47:09.494Z,1.70
2019-01-27T10:49:47.628Z,1.93
2019-01-27T10:52:24.953Z,4.70
2019-01-27T10:55:15.386Z,7.50
2019-01-27T10:57:53.970Z,1.23
2019-01-27T11:00:47.748Z,2.10
2019-01-27T11:03:28.337Z,4.23
2019-01-27T11:06:03.976Z,2.07
2019-01-27T11:08:40.280Z,4.70
2019-01-27T11:11:26.533Z,1.90
2019-01-27T11:14:08.138Z,1.93
2019-01-27T11:16:49.097Z,1.37
2019-01-27T11:19:42.810Z,2.77
2019-01-27T11:22:33.196Z,2.53
2019-01-27T11:25:19.660Z,4.20
2019-01-27T11:27:56.653Z,3.10
2019-01-27T11:31:04.954Z,2.60
2019-01-27T11:33:58.755Z,2.37
2019-01-27T11:36:44.848Z,2.40
2019-01-27T11:39:41.495Z,3.03
2019-01-27T11:42:20.945Z,2.20
2019-01-27T11:45:20.754Z,3.98
2019-01-27T11:48:08.920Z,1.63
2019-01-27T11:51:02.829Z,3.27
2019-01-27T11:53:31.401Z,3.27
2019-01-27T11:55:59.669Z,2.30
2019-01-27T11:58:28.164Z,2.95
2019-01-27T12:00:57.841Z,2.42
2019-01-27T12:03:25.993Z,4.05
2019-01-27T12:05:53.949Z,3.17
2019-01-27T12:08:22.213Z,4.25
2019-01-27T12:10:50.101Z,3.10
2019-01-27T12:13:18.062Z,3.90
2019-01-27T12:15:46.068Z,3.85
2019-01-27T12:18:14.142Z,3.20
2019-01-27T12:20:53.427Z,2.47
2019-01-27T12:23:21.778Z,3.90
2019-01-27T12:25:50.780Z,3.87
2019-01-27T12:28:18.641Z,3.50
2019-01-27T12:30:46.518Z,3.15
2019-01-27T12:33:14.641Z,3.33
2019-01-27T12:35:43.173Z,3.80
2019-01-27T12:38:11.099Z,4.28
2019-01-27T12:40:39.080Z,4.87
2019-01-27T12:43:07.177Z,3.77
2019-01-27T12:45:35.149Z,3.47
2019-01-27T12:48:03.262Z,4.65
2019-01-27T12:50:31.261Z,4.08
2019-01-27T12:52:59.141Z,3.77
2019-01-27T12:55:27.029Z,2.25
2019-01-27T12:57:55.242Z,2.98
2019-01-27T13:00:26.817Z,3.70
2019-01-27T13:02:54.881Z,2.70
2019-01-27T13:05:23.314Z,1.92
2019-01-27T13:07:51.185Z,2.17
2019-01-27T13:10:19.160Z,2.22
2019-01-27T13:12:47.438Z,1.92
2019-01-27T13:15:16.205Z,1.42
2019-01-27T13:17:44.297Z,2.47
2019-01-27T13:20:13.021Z,2.70
2019-01-27T13:22:41.393Z,2.95
2019-01-27T13:25:11.733Z,2.40
2019-01-27T13:27:40.218Z,1.98
2019-01-27T13:30:18.881Z,3.52
2019-01-27T13:32:47.240Z,2.35
2019-01-27T13:35:16.002Z,3.67
2019-01-27T13:37:44.220Z,4.23
2019-01-27T13:40:14.669Z,3.75
2019-01-27T13:42:42.941Z,5.60
2019-01-27T13:45:13.889Z,5.90
2019-01-27T13:47:42.101Z,4.95
2019-01-27T13:50:10.565Z,8.23
2019-01-27T13:52:38.529Z,13.83
2019-01-27T13:55:09.689Z,9.93
2019-01-27T13:57:37.540Z,7.80
2019-01-27T14:00:08.537Z,11.77
2019-01-27T14:02:36.497Z,7.58
2019-01-27T14:05:05.210Z,8.35
2019-01-27T14:07:33.306Z,7.33
2019-01-27T14:10:01.314Z,6.47
2019-01-27T14:12:29.216Z,8.43
2019-01-27T14:14:57.093Z,8.05
2019-01-27T14:17:25.085Z,7.70
2019-01-27T14:19:52.941Z,8.38
2019-01-27T14:22:24.201Z,7.10
2019-01-27T14:24:52.294Z,6.97
2019-01-27T14:27:20.170Z,8.23
2019-01-27T14:29:48.029Z,7.35
2019-01-27T14:32:15.892Z,8.97
2019-01-27T14:34:44.190Z,6.83
2019-01-27T14:37:12.053Z,8.53
2019-01-27T14:39:39.917Z,7.67
2019-01-27T14:42:07.928Z,8.40
2019-01-27T14:44:36.001Z,8.13
2019-01-27T14:47:04.346Z,7.60
2019-01-27T14:49:33.410Z,9.27
2019-01-27T14:52:01.910Z,6.60
2019-01-27T14:54:30.073Z,6.53
2019-01-27T14:57:01.193Z,7.55
2019-01-27T14:59:29.046Z,8.20
2019-01-27T15:01:57.173Z,6.55
2019-01-27T15:04:25.130Z,7.00
2019-01-27T15:06:53.348Z,6.13
2019-01-27T15:09:21.442Z,9.40
2019-01-27T15:11:56.302Z,6.63
2019-01-27T15:14:24.448Z,7.80
2019-01-27T15:16:53.125Z,6.77
2019-01-27T15:19:21.371Z,7.43
2019-01-27T15:21:52.705Z,10.70
2019-01-27T15:24:20.797Z,8.27
2019-01-27T15:26:49.557Z,7.60
2019-01-27T15:29:17.929Z,9.27
2019-01-27T15:31:46.048Z,8.10
2019-01-27T15:34:15.863Z,8.90
2019-01-27T15:36:44.453Z,11.00
2019-01-27T15:39:13.426Z,11.90
2019-01-27T15:41:41.780Z,9.83
2019-01-27T15:44:10.105Z,10.23
2019-01-27T15:46:42.423Z,10.35
2019-01-27T15:49:10.833Z,6.17
2019-01-27T15:51:38.686Z,4.17
2019-01-27T15:54:07.145Z,4.25
2019-01-27T15:56:35.535Z,3.80
2019-01-27T15:59:06.365Z,3.10
2019-01-27T16:01:34.477Z,6.05
2019-01-27T16:04:02.753Z,2.85
2019-01-27T16:06:31.188Z,2.42
2019-01-27T16:08:59.680Z,4.67
2019-01-27T16:11:30.210Z,7.12
2019-01-27T16:13:58.523Z,3.80
2019-01-27T16:16:26.398Z,3.10
2019-01-27T16:18:58.948Z,2.65
2019-01-27T16:21:25.213Z,3.05
2019-01-27T16:23:57.821Z,1.72
2019-01-27T16:26:26.041Z,2.00
2019-01-27T16:28:53.965Z,2.35
2019-01-27T16:31:44.056Z,4.80
2019-01-27T16:34:40.250Z,3.15
2019-01-27T16:37:07.201Z,5.03
2019-01-27T16:39:35.154Z,4.10
2019-01-27T16:42:02.413Z,5.50
2019-01-27T16:44:29.867Z,8.80
2019-01-27T16:46:56.805Z,6.47
2019-01-27T16:49:25.120Z,5.70
2019-01-27T16:51:53.342Z,5.72
2019-01-27T16:54:21.607Z,4.12
2019-01-27T16:56:49.937Z,8.68
2019-01-27T16:59:18.345Z,8.25
2019-01-27T17:01:59.028Z,8.83
2019-01-27T17:04:24.629Z,10.85
2019-01-27T17:06:51.821Z,8.53
2019-01-27T17:09:19.217Z,12.60
2019-01-27T17:11:46.067Z,14.10
2019-01-27T17:14:15.851Z,11.57
2019-01-27T17:16:44.018Z,15.50
2019-01-27T17:19:12.357Z,10.23
2019-01-27T17:21:40.657Z,13.00
2019-01-27T17:24:08.864Z,7.67
2019-01-27T17:26:37.308Z,10.08
2019-01-27T17:29:06.664Z,11.48
2019-01-27T17:31:34.975Z,13.28
2019-01-27T17:34:03.528Z,14.10
2019-01-27T17:36:31.863Z,17.73
2019-01-27T17:39:00.102Z,16.00
2019-01-27T17:41:30.221Z,14.50
2019-01-27T17:43:58.722Z,18.42
2019-01-27T17:46:26.821Z,11.28
2019-01-27T17:48:54.877Z,17.75
2019-01-27T17:51:23.021Z,17.17
2019-01-27T17:53:57.567Z,21.60
2019-01-27T17:56:26.133Z,15.93
2019-01-27T17:59:13.669Z,20.80
2019-01-27T18:02:04.306Z,13.70
2019-01-27T18:04:39.324Z,11.03
2019-01-27T18:07:27.582Z,18.55
2019-01-27T18:10:32.002Z,12.13
2019-01-27T18:13:06.409Z,13.88
2019-01-27T18:15:34.687Z,9.50
2019-01-27T18:18:02.012Z,16.70
2019-01-27T18:20:30.111Z,16.27
2019-01-27T18:22:59.738Z,14.58
2019-01-27T18:25:26.945Z,13.85
2019-01-27T18:27:54.527Z,12.10
2019-01-27T18:30:22.552Z,16.85
2019-01-27T18:32:50.041Z,15.58
2019-01-27T18:35:17.233Z,17.00
2019-01-27T18:37:48.854Z,14.85
2019-01-27T18:40:15.809Z,15.65
2019-01-27T18:42:44.207Z,18.55
2019-01-27T18:45:14.603Z,15.60
2019-01-27T18:47:43.078Z,15.88
2019-01-27T18:50:16.323Z,11.75
2019-01-27T18:52:44.525Z,17.65
2019-01-27T18:55:30.873Z,18.32
2019-01-27T18:58:05.821Z,16.12
2019-01-27T19:00:53.293Z,10.35
2019-01-27T19:03:28.259Z,12.40
2019-01-27T19:06:27.514Z,13.35
2019-01-27T19:09:13.257Z,15.65
2019-01-27T19:11:49.789Z,13.62
2019-01-27T19:14:31.633Z,6.85
2019-01-27T19:17:15.128Z,8.48
2019-01-27T19:19:54.248Z,9.90
2019-01-27T19:22:28.757Z,13.15
2019-01-27T19:25:08.856Z,9.78
2019-01-27T19:27:42.294Z,10.43
2019-01-27T19:30:27.318Z,13.98
2019-01-27T19:33:04.293Z,18.48
2019-01-27T19:35:40.359Z,15.88
2019-01-27T19:38:27.097Z,11.60
2019-01-27T19:41:01.518Z,16.45
2019-01-27T19:43:48.848Z,24.63
2019-01-27T19:46:26.257Z,15.98
2019-01-27T19:49:00.361Z,21.60
2019-01-27T19:51:34.995Z,18.40
2019-01-27T19:54:42.077Z,13.90
2019-01-27T19:57:18.466Z,33.25
2019-01-27T20:00:02.205Z,21.15
2019-01-27T20:02:37.097Z,19.00
2019-01-27T20:05:24.533Z,16.00
2019-01-27T20:08:12.647Z,16.85
2019-01-27T20:11:01.300Z,16.50
2019-01-27T20:13:37.513Z,13.95
2019-01-27T20:16:22.937Z,14.43
2019-01-27T20:19:13.924Z,13.58
2019-01-27T20:21:54.213Z,10.98
2019-01-27T20:24:44.297Z,17.00
2019-01-27T20:27:27.280Z,9.58
2019-01-27T20:30:15.536Z,10.28
2019-01-27T20:33:03.670Z,17.30
2019-01-27T20:35:44.071Z,17.35
2019-01-27T20:38:43.233Z,10.88
2019-01-27T20:41:29.468Z,12.37
2019-01-27T20:44:16.706Z,13.93
2019-01-27T20:46:52.872Z,16.57
2019-01-27T20:49:40.905Z,16.40
2019-01-27T20:52:20.277Z,18.40
2019-01-27T20:54:59.425Z,18.07
2019-01-27T20:57:39.309Z,17.30
2019-01-27T21:00:30.965Z,17.25
2019-01-27T21:03:30.441Z,18.40
2019-01-27T21:06:10.489Z,15.43
2019-01-27T21:08:44.744Z,21.27
2019-01-27T21:11:39.063Z,16.80
2019-01-27T21:14:32.480Z,27.55
2019-01-27T21:17:11.004Z,15.15
2019-01-27T21:19:42.139Z,14.18
2019-01-27T21:22:10.065Z,18.55
2019-01-27T21:24:42.681Z,15.68
2019-01-27T21:27:10.647Z,15.75
2019-01-27T21:29:38.621Z,17.52
2019-01-27T21:32:06.624Z,14.40
2019-01-27T21:34:34.493Z,12.90
2019-01-27T21:37:03.066Z,14.73
2019-01-27T21:39:34.977Z,13.32
2019-01-27T21:42:03.295Z,13.50
2019-01-27T21:44:31.157Z,14.83
2019-01-27T21:46:59.035Z,18.85
2019-01-27T21:49:30.950Z,17.52
2019-01-27T21:51:58.934Z,14.65
2019-01-27T21:54:26.782Z,14.93
2019-01-27T21:56:54.657Z,16.10
2019-01-27T21:59:22.513Z,11.80
2019-01-27T22:01:50.393Z,12.85
2019-01-27T22:04:19.424Z,9.60
2019-01-27T22:06:47.433Z,10.98
2019-01-27T22:09:15.547Z,11.22
2019-01-27T22:11:43.494Z,11.45
2019-01-27T22:14:11.399Z,13.75
2019-01-27T22:16:39.543Z,12.90
2019-01-27T22:19:10.614Z,11.88
2019-01-27T22:21:38.569Z,9.15
2019-01-27T22:24:06.546Z,13.10
2019-01-27T22:26:34.587Z,10.18
2019-01-27T22:29:02.558Z,11.53
2019-01-27T22:31:34.449Z,10.43
2019-01-27T22:34:02.512Z,11.50
2019-01-27T22:36:30.475Z,13.28
2019-01-27T22:38:58.497Z,11.03
2019-01-27T22:41:26.498Z,12.07
2019-01-27T22:44:00.086Z,12.58
2019-01-27T22:46:27.953Z,11.78
2019-01-27T22:48:57.897Z,13.83
2019-01-27T22:51:25.851Z,12.33
2019-01-27T22:53:53.729Z,12.18
2019-01-27T22:56:22.178Z,13.15
2019-01-27T22:58:50.254Z,10.65
2019-01-27T23:01:19.151Z,15.10
2019-01-27T23:03:51.989Z,12.63
2019-01-27T23:06:23.541Z,15.08
2019-01-27T23:08:51.517Z,15.63
2019-01-27T23:11:20.476Z,15.18
2019-01-27T23:13:48.697Z,12.10
2019-01-27T23:16:16.695Z,10.25
2019-01-27T23:18:53.674Z,12.23
2019-01-27T23:21:21.723Z,12.07
2019-01-27T23:23:50.146Z,11.20
2019-01-27T23:26:18.935Z,17.92
2019-01-27T23:28:50.512Z,13.35
2019-01-27T23:31:19.444Z,14.33
2019-01-27T23:33:47.573Z,10.72
2019-01-27T23:36:15.553Z,12.65
2019-01-27T23:38:43.664Z,8.78
2019-01-27T23:41:13.649Z,10.93
2019-01-27T23:43:41.982Z,9.80
2019-01-27T23:46:10.206Z,9.90
2019-01-27T23:48:38.633Z,11.57
2019-01-27T23:51:06.969Z,11.60
2019-01-27T23:53:37.677Z,9.75
2019-01-27T23:56:05.931Z,8.50
2019-01-27T23:58:33.817Z,8.85
